Time;durP1;ratioP1;P1;durP2;ratioP2;P2;SDS_P1;SDS_P2;PMS_P1;PMS_P2;Temp;Humidity;BMP_temperature;BMP_pressure;BME280_temperature;BME280_humidity;BME280_pressure;Samples;Min_cycle;Max_cycle;Signal;HPM_P1;HPM_P2
2022/11/16 00:00:16;;;;;;;;;;;12.20;99.90;;;;;;5099373;28;19999;-34
2022/11/16 00:02:41;;;;;;;;;;;12.30;99.90;;;;;;5094516;28;19922;-32
2022/11/16 00:05:07;;;;;;;;;;;12.30;99.90;;;;;;5094348;28;20485;-34
2022/11/16 00:07:32;;;;;;;;;;;12.20;99.90;;;;;;5096178;28;19908;-34
2022/11/16 00:09:58;;;;;;;;;;;12.20;99.90;;;;;;5094352;28;19919;-31
2022/11/16 00:12:23;;;;;;;;;;;12.20;99.90;;;;;;5105847;28;19912;-32
2022/11/16 00:14:49;;;;;;;;;;;12.20;99.90;;;;;;5112316;28;19908;-34
2022/11/16 00:17:15;;;;;;;;;;;12.30;99.90;;;;;;5112717;28;19915;-32
2022/11/16 00:19:40;;;;;;;;;;;12.20;99.90;;;;;;5097420;28;20271;-31
2022/11/16 00:22:06;;;;;;;;;;;12.30;99.90;;;;;;5104056;28;19943;-32
2022/11/16 00:24:31;;;;;;;;;;;12.30;99.90;;;;;;5103413;28;19958;-32
2022/11/16 00:26:57;;;;;;;;;;;12.30;99.90;;;;;;5094138;28;19912;-46
2022/11/16 00:29:23;;;;;;;;;;;12.30;99.90;;;;;;5098377;28;20379;-32
2022/11/16 00:31:49;;;;;;;;;;;12.30;99.90;;;;;;5111492;28;19916;-37
2022/11/16 00:34:15;;;;;;;;;;;12.30;99.90;;;;;;5113629;28;20287;-32
2022/11/16 00:36:40;;;;;;;;;;;12.30;99.90;;;;;;5101731;28;19911;-39
2022/11/16 00:39:06;;;;;;;;;;;12.30;99.90;;;;;;5095033;28;19916;-32
2022/11/16 00:41:31;;;;;;;;;;;12.40;99.90;;;;;;5101880;28;19915;-32
2022/11/16 00:43:57;;;;;;;;;;;12.30;99.90;;;;;;5099771;28;20006;-35
2022/11/16 00:46:22;;;;;;;;;;;12.30;99.90;;;;;;5097779;28;20469;-34
2022/11/16 00:48:48;;;;;;;;;;;12.30;99.90;;;;;;5110995;28;19919;-34
2022/11/16 00:51:13;;;;;;;;;;;12.40;99.90;;;;;;5106558;28;19907;-36
2022/11/16 00:53:39;;;;;;;;;;;12.30;99.90;;;;;;5102704;28;20420;-34
2022/11/16 00:56:04;;;;;;;;;;;12.40;99.90;;;;;;5109954;28;20002;-32
2022/11/16 00:58:30;;;;;;;;;;;12.30;99.90;;;;;;5113962;28;20381;-34
2022/11/16 01:00:55;;;;;;;;;;;12.40;99.90;;;;;;5111195;28;19968;-36
2022/11/16 01:03:21;;;;;;;;;;;12.30;99.90;;;;;;5112082;28;19907;-31
2022/11/16 01:05:46;;;;;;;;;;;12.30;99.90;;;;;;5104356;28;19912;-33
2022/11/16 01:08:12;;;;;;;;;;;12.30;99.90;;;;;;5096550;28;19912;-32
2022/11/16 01:10:38;;;;;;;;;;;12.30;99.90;;;;;;5103627;28;19960;-32
2022/11/16 01:13:04;;;;;;;;;;;12.30;99.90;;;;;;5112094;28;19907;-32
2022/11/16 01:15:29;;;;;;;;;;;12.30;99.90;;;;;;5097970;28;19915;-32
2022/11/16 01:17:55;;;;;;;;;;;12.30;99.90;;;;;;5096764;28;20372;-34
2022/11/16 01:20:22;;;;;;;;;;;12.40;99.90;;;;;;5103602;28;19950;-33
2022/11/16 01:22:47;;;;;;;;;;;12.40;99.90;;;;;;5113641;28;20329;-35
2022/11/16 01:25:14;;;;;;;;;;;12.40;99.90;;;;;;5112367;28;19911;-33
2022/11/16 01:27:40;;;;;;;;;;;12.40;99.90;;;;;;5113867;28;19911;-34
2022/11/16 01:30:06;;;;;;;;;;;12.40;99.90;;;;;;5111061;28;19912;-31
2022/11/16 01:32:32;;;;;;;;;;;12.30;99.90;;;;;;5112101;28;19912;-31
2022/11/16 01:34:58;;;;;;;;;;;12.40;99.90;;;;;;5113769;28;19919;-34
2022/11/16 01:37:23;;;;;;;;;;;12.40;99.90;;;;;;5117430;28;19908;-31
2022/11/16 01:39:49;;;;;;;;;;;12.40;99.90;;;;;;5117697;28;19914;-32
2022/11/16 01:42:22;;;;;;;;;;;12.40;99.90;;;;;;5115273;28;19908;-35
2022/11/16 01:44:48;;;;;;;;;;;12.40;99.90;;;;;;5097468;28;19908;-34
2022/11/16 01:47:14;;;;;;;;;;;12.40;99.90;;;;;;5097699;28;20257;-37
2022/11/16 01:49:42;;;;;;;;;;;12.40;99.90;;;;;;5112518;28;19911;-35
2022/11/16 01:52:09;;;;;;;;;;;12.40;99.90;;;;;;5117502;28;19999;-35
2022/11/16 01:54:36;;;;;;;;;;;12.50;99.90;;;;;;5118521;27;20371;-31
2022/11/16 01:57:03;;;;;;;;;;;12.50;99.90;;;;;;5117388;28;20391;-32
2022/11/16 01:59:29;;;;;;;;;;;12.50;99.90;;;;;;5107417;28;19946;-35
2022/11/16 02:01:55;;;;;;;;;;;12.50;99.90;;;;;;5096260;28;19912;-34
2022/11/16 02:04:21;;;;;;;;;;;12.40;99.90;;;;;;5099110;28;19962;-32
2022/11/16 02:06:52;;;;;;;;;;;12.40;99.90;;;;;;5096363;28;19912;-33
2022/11/16 02:09:56;;;;;;;;;;;12.40;99.90;;;;;;5104924;28;19912;-31
2022/11/16 02:12:21;;;;;;;;;;;12.40;99.90;;;;;;5114003;28;20006;-31
2022/11/16 02:15:05;;;;;;;;;;;12.40;99.90;;;;;;5116974;28;20386;-32
2022/11/16 02:17:35;;;;;;;;;;;12.40;99.90;;;;;;5110045;28;20367;-32
2022/11/16 02:20:07;;;;;;;;;;;12.40;99.90;;;;;;5116938;28;19914;-36
2022/11/16 02:22:33;;;;;;;;;;;12.40;99.90;;;;;;5102478;28;20276;-33
2022/11/16 02:25:04;;;;;;;;;;;12.40;99.90;;;;;;5115861;28;19907;-34
2022/11/16 02:27:30;;;;;;;;;;;12.40;99.90;;;;;;5110448;28;19907;-33
2022/11/16 02:29:56;;;;;;;;;;;12.40;99.90;;;;;;5099733;28;20368;-30
2022/11/16 02:32:28;;;;;;;;;;;12.40;99.90;;;;;;5107937;28;20432;-33
2022/11/16 02:35:12;;;;;;;;;;;12.40;99.90;;;;;;5100401;28;19998;-35
2022/11/16 02:37:41;;;;;;;;;;;12.50;99.90;;;;;;5112615;28;19968;-33
2022/11/16 02:40:09;;;;;;;;;;;12.50;99.90;;;;;;5107590;28;20648;-34
2022/11/16 02:42:44;;;;;;;;;;;12.50;99.90;;;;;;5096701;28;20541;-33
2022/11/16 02:45:11;;;;;;;;;;;12.50;99.90;;;;;;5099833;28;20374;-33
2022/11/16 02:47:37;;;;;;;;;;;12.50;99.90;;;;;;5100457;28;19912;-32
2022/11/16 02:50:09;;;;;;;;;;;12.50;99.90;;;;;;5114159;28;20644;-32
2022/11/16 02:52:35;;;;;;;;;;;12.60;99.90;;;;;;5096380;28;19908;-33
2022/11/16 02:55:01;;;;;;;;;;;12.50;99.90;;;;;;5099146;28;19961;-35
2022/11/16 02:57:37;;;;;;;;;;;12.50;99.90;;;;;;5113424;28;19912;-33
2022/11/16 03:00:04;;;;;;;;;;;12.50;99.90;;;;;;5112102;28;19998;-35
2022/11/16 03:02:38;;;;;;;;;;;12.50;99.90;;;;;;5109441;28;19957;-33
2022/11/16 03:05:08;;;;;;;;;;;12.40;99.90;;;;;;5099792;28;20389;-31
2022/11/16 03:07:36;;;;;;;;;;;12.40;99.90;;;;;;5095523;28;19908;-33
2022/11/16 03:10:02;;;;;;;;;;;12.50;99.90;;;;;;5104603;28;20380;-31
2022/11/16 03:12:29;;;;;;;;;;;12.50;99.90;;;;;;5116208;28;19908;-34
2022/11/16 03:15:00;;;;;;;;;;;12.50;99.90;;;;;;5107530;28;19946;-36
2022/11/16 03:17:25;;;;;;;;;;;12.50;99.90;;;;;;5101441;28;19908;-37
2022/11/16 03:19:58;;;;;;;;;;;12.50;99.90;;;;;;5106201;28;19977;-34
2022/11/16 03:22:27;;;;;;;;;;;12.50;99.90;;;;;;5095608;28;19915;-40
2022/11/16 03:24:52;;;;;;;;;;;12.50;99.90;;;;;;5102773;28;19915;-39
2022/11/16 03:27:24;;;;;;;;;;;12.40;99.90;;;;;;5095230;28;20363;-38
2022/11/16 03:29:55;;;;;;;;;;;12.40;99.90;;;;;;5093523;28;20276;-34
2022/11/16 03:32:24;;;;;;;;;;;12.40;99.90;;;;;;5096613;28;19946;-39
2022/11/16 03:34:55;;;;;;;;;;;12.40;99.90;;;;;;5111558;27;19908;-38
2022/11/16 03:37:22;;;;;;;;;;;12.40;99.90;;;;;;5128905;27;20382;-38
2022/11/16 03:39:48;;;;;;;;;;;12.40;99.90;;;;;;5104808;28;20367;-37
2022/11/16 03:42:13;;;;;;;;;;;12.30;99.90;;;;;;5114018;28;19931;-39
2022/11/16 03:44:39;;;;;;;;;;;12.30;99.90;;;;;;5095892;28;19912;-37
2022/11/16 03:47:05;;;;;;;;;;;12.30;99.90;;;;;;5103152;28;19947;-38
2022/11/16 03:49:31;;;;;;;;;;;12.30;99.90;;;;;;5100291;28;19951;-38
2022/11/16 03:51:56;;;;;;;;;;;12.20;99.90;;;;;;5110877;28;19965;-38
2022/11/16 03:54:22;;;;;;;;;;;12.20;99.90;;;;;;5094071;28;19915;-38
2022/11/16 03:56:48;;;;;;;;;;;12.20;99.90;;;;;;5093355;28;20006;-38
2022/11/16 03:59:13;;;;;;;;;;;12.10;99.90;;;;;;5101470;28;19907;-38
2022/11/16 04:01:39;;;;;;;;;;;12.10;99.90;;;;;;5102621;28;20357;-38
2022/11/16 04:04:04;;;;;;;;;;;12.10;99.90;;;;;;5098459;28;19953;-39
2022/11/16 04:25:47;;;;;;;;;;;12.10;99.90;;;;;;5101508;28;19965;-37
2022/11/16 04:28:15;;;;;;;;;;;12.10;99.90;;;;;;5099207;28;20363;-39
2022/11/16 04:38:56;;;;;;;;;;;12.00;99.90;;;;;;5109123;28;19918;-39
2022/11/16 04:44:06;;;;;;;;;;;12.00;99.90;;;;;;5094308;28;19927;-40
2022/11/16 04:49:15;;;;;;;;;;;12.00;99.90;;;;;;5106381;28;19918;-40
2022/11/16 04:51:41;;;;;;;;;;;12.00;99.90;;;;;;5107112;28;19908;-37
2022/11/16 04:54:07;;;;;;;;;;;12.00;99.90;;;;;;5108980;28;20309;-38
2022/11/16 04:56:32;;;;;;;;;;;12.00;99.90;;;;;;5098534;28;19907;-38
2022/11/16 04:58:58;;;;;;;;;;;12.00;99.90;;;;;;5099162;28;19908;-38
2022/11/16 05:02:06;;;;;;;;;;;11.90;99.90;;;;;;5106057;28;19908;-39
2022/11/16 05:04:09;;;;;;;;;;;12.00;99.90;;;;;;5103941;28;19908;-35
2022/11/16 05:06:34;;;;;;;;;;;12.00;99.90;;;;;;5098877;28;19912;-39
2022/11/16 05:09:00;;;;;;;;;;;11.90;99.90;;;;;;5096232;28;19971;-39
2022/11/16 05:11:25;;;;;;;;;;;11.90;99.90;;;;;;5094969;28;19908;-37
2022/11/16 05:13:50;;;;;;;;;;;11.80;99.90;;;;;;5099894;28;19947;-32
2022/11/16 05:16:16;;;;;;;;;;;11.80;99.90;;;;;;5113482;28;19919;-33
2022/11/16 05:18:41;;;;;;;;;;;11.80;99.90;;;;;;5104767;28;19908;-58
2022/11/16 05:21:07;;;;;;;;;;;11.80;99.90;;;;;;5092876;28;19908;-34
2022/11/16 05:26:16;;;;;;;;;;;11.80;99.90;;;;;;5093343;28;19918;-31
2022/11/16 05:28:42;;;;;;;;;;;11.80;99.90;;;;;;5095704;28;20007;-33
2022/11/16 05:31:07;;;;;;;;;;;11.80;99.90;;;;;;5103129;28;20360;-33
2022/11/16 05:33:33;;;;;;;;;;;11.70;99.90;;;;;;5106264;28;20279;-34
2022/11/16 05:35:58;;;;;;;;;;;11.70;99.90;;;;;;5096215;28;20011;-35
2022/11/16 05:38:24;;;;;;;;;;;11.70;99.90;;;;;;5101949;28;19907;-33
2022/11/16 05:40:50;;;;;;;;;;;11.70;99.90;;;;;;5109559;28;19914;-37
2022/11/16 05:43:15;;;;;;;;;;;11.70;99.90;;;;;;5096485;28;19908;-34
2022/11/16 05:45:41;;;;;;;;;;;11.70;99.90;;;;;;5096601;28;19914;-32
2022/11/16 05:48:07;;;;;;;;;;;11.70;99.90;;;;;;5099278;28;19907;-33
2022/11/16 05:50:32;;;;;;;;;;;11.70;99.90;;;;;;5096629;28;19915;-31
2022/11/16 05:52:58;;;;;;;;;;;11.60;99.90;;;;;;5099562;28;19995;-32
2022/11/16 05:55:23;;;;;;;;;;;11.60;99.90;;;;;;5092709;28;20295;-33
2022/11/16 05:57:49;;;;;;;;;;;11.60;99.90;;;;;;5092569;28;21023;-32
2022/11/16 06:00:14;;;;;;;;;;;11.50;99.90;;;;;;5094541;28;19916;-34
2022/11/16 06:02:40;;;;;;;;;;;11.50;99.90;;;;;;5101417;28;20363;-31
2022/11/16 06:05:05;;;;;;;;;;;11.50;99.90;;;;;;5103314;28;19912;-32
2022/11/16 06:07:32;;;;;;;;;;;11.40;99.90;;;;;;5110446;28;19907;-45
2022/11/16 06:09:58;;;;;;;;;;;11.40;99.90;;;;;;5096752;28;19912;-39
2022/11/16 06:12:23;;;;;;;;;;;11.40;99.90;;;;;;5110037;28;19915;-39
2022/11/16 06:14:49;;;;;;;;;;;11.40;99.90;;;;;;5098897;28;19979;-38
2022/11/16 06:17:14;;;;;;;;;;;11.40;99.90;;;;;;5099663;28;19908;-40
2022/11/16 06:19:40;;;;;;;;;;;11.40;99.90;;;;;;5091902;28;20304;-39
2022/11/16 06:22:06;;;;;;;;;;;11.40;99.90;;;;;;5094856;28;20385;-39
2022/11/16 06:24:31;;;;;;;;;;;11.30;99.90;;;;;;5098214;28;20287;-40
2022/11/16 06:26:57;;;;;;;;;;;11.40;99.90;;;;;;5111813;28;20279;-37
2022/11/16 06:29:22;;;;;;;;;;;11.30;99.90;;;;;;5101064;28;19918;-40
2022/11/16 06:31:48;;;;;;;;;;;11.30;99.90;;;;;;5097762;28;19923;-40
2022/11/16 06:34:13;;;;;;;;;;;11.20;99.90;;;;;;5107546;28;19918;-40
2022/11/16 06:36:39;;;;;;;;;;;11.20;99.90;;;;;;5101683;28;19907;-40
2022/11/16 06:39:04;;;;;;;;;;;11.10;99.90;;;;;;5106935;28;19908;-41
2022/11/16 06:41:31;;;;;;;;;;;11.00;99.90;;;;;;5096088;28;20003;-39
2022/11/16 06:43:56;;;;;;;;;;;11.00;99.90;;;;;;5097380;28;19945;-39
2022/11/16 06:46:23;;;;;;;;;;;10.90;99.90;;;;;;5099222;28;20451;-39
2022/11/16 06:48:49;;;;;;;;;;;10.80;99.90;;;;;;5115140;28;20380;-39
2022/11/16 06:51:14;;;;;;;;;;;10.80;99.90;;;;;;5116338;28;19908;-39
2022/11/16 06:53:40;;;;;;;;;;;10.80;99.90;;;;;;5111636;28;19914;-43
2022/11/16 06:56:05;;;;;;;;;;;10.80;99.90;;;;;;5104774;28;19911;-39
2022/11/16 06:58:31;;;;;;;;;;;10.70;99.90;;;;;;5104333;28;19915;-39
2022/11/16 07:00:57;;;;;;;;;;;10.70;99.90;;;;;;5097282;28;19920;-40
2022/11/16 07:03:22;;;;;;;;;;;10.70;99.90;;;;;;5112821;28;19911;-44
2022/11/16 07:05:48;;;;;;;;;;;10.70;99.90;;;;;;5107929;28;19908;-38
2022/11/16 07:08:14;;;;;;;;;;;10.60;99.90;;;;;;5097503;28;19915;-40
2022/11/16 07:10:39;;;;;;;;;;;10.60;99.90;;;;;;5105900;28;19907;-39
2022/11/16 07:13:05;;;;;;;;;;;10.60;99.90;;;;;;5106703;28;19907;-40
2022/11/16 07:15:31;;;;;;;;;;;10.60;99.90;;;;;;5102353;28;19917;-39
2022/11/16 07:18:01;;;;;;;;;;;10.40;99.90;;;;;;5100299;28;19912;-38
2022/11/16 07:20:26;;;;;;;;;;;10.40;99.90;;;;;;5111627;28;19912;-37
2022/11/16 07:22:52;;;;;;;;;;;10.40;99.90;;;;;;5103798;28;19907;-39
2022/11/16 07:25:17;;;;;;;;;;;10.40;99.90;;;;;;5105168;28;19995;-35
2022/11/16 07:27:43;;;;;;;;;;;10.30;99.90;;;;;;5095248;28;19940;-40
2022/11/16 07:30:08;;;;;;;;;;;10.30;99.90;;;;;;5115494;28;20355;-40
2022/11/16 07:32:34;;;;;;;;;;;10.30;99.90;;;;;;5105881;28;19916;-39
2022/11/16 07:35:00;;;;;;;;;;;10.30;99.90;;;;;;5101293;28;19950;-41
2022/11/16 07:37:25;;;;;;;;;;;10.30;99.90;;;;;;5106873;28;19912;-42
2022/11/16 07:39:51;;;;;;;;;;;10.40;99.90;;;;;;5114522;28;19915;-38
2022/11/16 07:42:16;;;;;;;;;;;10.40;99.90;;;;;;5112164;28;20006;-41
2022/11/16 07:44:42;;;;;;;;;;;10.30;99.90;;;;;;5094715;28;19908;-38
2022/11/16 07:47:07;;;;;;;;;;;10.30;99.90;;;;;;5107859;28;20366;-40
2022/11/16 07:49:33;;;;;;;;;;;10.30;99.90;;;;;;5109173;28;19912;-39
2022/11/16 07:51:58;;;;;;;;;;;10.30;99.90;;;;;;5107640;28;19914;-38
2022/11/16 07:54:24;;;;;;;;;;;10.30;99.90;;;;;;5109390;28;19923;-39
2022/11/16 07:56:49;;;;;;;;;;;10.30;99.90;;;;;;5100567;28;19912;-39
2022/11/16 07:59:15;;;;;;;;;;;10.30;99.90;;;;;;5096765;28;19914;-39
2022/11/16 08:01:40;;;;;;;;;;;10.30;99.90;;;;;;5103043;28;19908;-39
2022/11/16 08:04:06;;;;;;;;;;;10.30;99.90;;;;;;5106492;28;20282;-39
2022/11/16 08:06:31;;;;;;;;;;;10.30;99.90;;;;;;5108482;28;20378;-39
2022/11/16 08:08:57;;;;;;;;;;;10.30;99.90;;;;;;5103287;28;19923;-42
2022/11/16 08:11:22;;;;;;;;;;;10.30;99.90;;;;;;5109801;28;19914;-40
2022/11/16 08:13:48;;;;;;;;;;;10.40;99.90;;;;;;5100538;28;20153;-41
2022/11/16 08:16:18;;;;;;;;;;;10.40;99.90;;;;;;5103445;28;20367;-41
2022/11/16 08:18:43;;;;;;;;;;;10.40;99.90;;;;;;5101136;28;19919;-40
2022/11/16 08:21:10;;;;;;;;;;;10.40;99.90;;;;;;5108774;28;20009;-41
2022/11/16 08:23:36;;;;;;;;;;;10.40;99.90;;;;;;5105105;28;19919;-42
2022/11/16 08:26:03;;;;;;;;;;;10.40;99.90;;;;;;5095640;28;19908;-40
2022/11/16 08:28:29;;;;;;;;;;;10.40;99.90;;;;;;5105019;28;19911;-38
2022/11/16 08:30:55;;;;;;;;;;;10.40;99.90;;;;;;5099660;28;19980;-41
2022/11/16 08:33:20;;;;;;;;;;;10.40;99.90;;;;;;5106081;28;20276;-40
2022/11/16 08:35:49;;;;;;;;;;;10.40;99.90;;;;;;5109172;28;19967;-40
2022/11/16 08:38:14;;;;;;;;;;;10.40;99.90;;;;;;5093426;28;19915;-38
2022/11/16 08:40:40;;;;;;;;;;;10.50;99.90;;;;;;5095267;28;19904;-40
2022/11/16 08:43:06;;;;;;;;;;;10.50;99.90;;;;;;5126825;27;19912;-39
2022/11/16 08:45:32;;;;;;;;;;;10.50;99.90;;;;;;5099731;28;20321;-39
2022/11/16 08:47:58;;;;;;;;;;;10.60;99.90;;;;;;5099577;28;19939;-38
2022/11/16 08:50:23;;;;;;;;;;;10.60;99.90;;;;;;5093420;28;19951;-40
2022/11/16 08:52:49;;;;;;;;;;;10.60;99.90;;;;;;5094278;28;20392;-39
2022/11/16 08:55:17;;;;;;;;;;;10.60;99.90;;;;;;5099625;28;19911;-40
2022/11/16 08:57:42;;;;;;;;;;;10.60;99.90;;;;;;5114140;28;19908;-42
2022/11/16 09:00:08;;;;;;;;;;;10.60;99.90;;;;;;5110314;28;20280;-40
2022/11/16 09:02:33;;;;;;;;;;;10.60;99.90;;;;;;5098047;28;19968;-41
2022/11/16 09:04:59;;;;;;;;;;;10.60;99.90;;;;;;5107208;28;19904;-42
2022/11/16 09:07:24;;;;;;;;;;;10.60;99.90;;;;;;5101816;28;20356;-40
2022/11/16 09:09:50;;;;;;;;;;;10.60;99.90;;;;;;5107389;28;19942;-41
2022/11/16 09:12:16;;;;;;;;;;;10.70;99.90;;;;;;5113795;28;19912;-42
2022/11/16 09:14:42;;;;;;;;;;;10.80;99.90;;;;;;5107216;28;19939;-40
2022/11/16 09:17:07;;;;;;;;;;;10.70;99.90;;;;;;5093744;28;19935;-43
2022/11/16 09:19:33;;;;;;;;;;;10.80;99.90;;;;;;5098292;28;19915;-39
2022/11/16 09:21:58;;;;;;;;;;;10.80;99.90;;;;;;5101574;28;20053;-39
2022/11/16 09:24:23;;;;;;;;;;;10.70;99.90;;;;;;5093292;28;20280;-42
2022/11/16 09:29:33;;;;;;;;;;;10.80;99.90;;;;;;5093269;28;19981;-39
2022/11/16 09:31:58;;;;;;;;;;;10.80;99.90;;;;;;5100201;28;19945;-42
2022/11/16 09:34:24;;;;;;;;;;;10.80;99.90;;;;;;5106392;28;19915;-39
2022/11/16 09:36:50;;;;;;;;;;;10.90;99.90;;;;;;5104723;28;19947;-41
2022/11/16 09:39:15;;;;;;;;;;;11.00;99.90;;;;;;5097293;28;20445;-41
2022/11/16 09:41:43;;;;;;;;;;;11.10;99.90;;;;;;5099872;28;20096;-36
2022/11/16 09:44:15;;;;;;;;;;;11.10;99.90;;;;;;5106648;28;20375;-37
2022/11/16 09:46:44;;;;;;;;;;;11.20;99.90;;;;;;5109088;28;19916;-37
2022/11/16 09:49:19;;;;;;;;;;;11.20;99.90;;;;;;5095135;28;19912;-33
2022/11/16 09:51:46;;;;;;;;;;;11.20;99.90;;;;;;5108402;28;19961;-38
2022/11/16 09:54:17;;;;;;;;;;;11.20;99.90;;;;;;5113365;28;19911;-44
2022/11/16 09:56:44;;;;;;;;;;;11.20;99.90;;;;;;5111092;28;19908;-42
2022/11/16 09:59:23;;;;;;;;;;;11.20;99.90;;;;;;5096917;28;19911;-42
2022/11/16 10:01:57;;;;;;;;;;;11.30;99.90;;;;;;5099686;27;19912;-38
2022/11/16 10:04:35;;;;;;;;;;;11.40;99.90;;;;;;5107013;28;19915;-50
2022/11/16 10:07:04;;;;;;;;;;;11.40;99.90;;;;;;5096833;28;19904;-46
2022/11/16 10:09:30;;;;;;;;;;;11.50;99.90;;;;;;5096229;28;20252;-40
2022/11/16 10:12:10;;;;;;;;;;;11.60;99.90;;;;;;5095250;28;19911;-45
2022/11/16 10:14:56;;;;;;;;;;;11.60;99.90;;;;;;5093050;28;19919;-41
2022/11/16 10:17:39;;;;;;;;;;;11.70;99.90;;;;;;5111104;28;20379;-47
2022/11/16 10:20:14;;;;;;;;;;;11.70;99.90;;;;;;5102955;28;20410;-41
2022/11/16 10:22:39;;;;;;;;;;;11.90;99.90;;;;;;5108876;28;19950;-40
2022/11/16 10:25:25;;;;;;;;;;;11.90;99.90;;;;;;5115569;28;20336;-42
2022/11/16 10:27:50;;;;;;;;;;;11.90;99.90;;;;;;5116186;28;19903;-41
2022/11/16 10:30:17;;;;;;;;;;;11.90;99.90;;;;;;5115741;28;20351;-40
2022/11/16 10:32:48;;;;;;;;;;;11.90;99.90;;;;;;5114337;28;20384;-42
2022/11/16 10:35:13;;;;;;;;;;;12.00;99.90;;;;;;5102725;28;19907;-36
2022/11/16 10:37:48;;;;;;;;;;;12.00;99.90;;;;;;5113685;28;19914;-37
2022/11/16 10:40:17;;;;;;;;;;;11.90;99.90;;;;;;5107905;28;19908;-35
2022/11/16 10:42:44;;;;;;;;;;;11.90;99.90;;;;;;5095726;28;19908;-36
2022/11/16 10:45:10;;;;;;;;;;;11.90;99.90;;;;;;5102352;28;19912;-38
2022/11/16 10:47:41;;;;;;;;;;;11.80;99.90;;;;;;5099122;28;20431;-37
2022/11/16 10:50:25;;;;;;;;;;;11.90;99.90;;;;;;5095338;28;19915;-37
2022/11/16 10:52:51;;;;;;;;;;;12.10;99.90;;;;;;5114211;28;19908;-45
2022/11/16 10:55:17;;;;;;;;;;;12.10;99.90;;;;;;5115914;28;19910;-43
2022/11/16 10:57:57;;;;;;;;;;;12.10;99.90;;;;;;5115985;28;19904;-45
2022/11/16 11:00:35;;;;;;;;;;;12.10;99.90;;;;;;5115979;28;20364;-45
2022/11/16 11:03:00;;;;;;;;;;;12.20;99.90;;;;;;5115527;28;19904;-41
2022/11/16 11:05:26;;;;;;;;;;;12.20;99.90;;;;;;5095738;28;20328;-44
2022/11/16 11:08:10;;;;;;;;;;;12.20;99.90;;;;;;5094843;28;19912;-41
2022/11/16 11:10:37;;;;;;;;;;;12.30;99.90;;;;;;5095496;28;19932;-44
2022/11/16 11:13:06;;;;;;;;;;;12.40;99.90;;;;;;5095460;28;20395;-40
2022/11/16 11:15:32;;;;;;;;;;;12.40;99.90;;;;;;5095612;28;19904;-42
2022/11/16 11:18:16;;;;;;;;;;;12.40;99.90;;;;;;5115372;28;20267;-41
2022/11/16 11:20:46;;;;;;;;;;;12.30;99.90;;;;;;5109662;28;20268;-41
2022/11/16 11:23:13;;;;;;;;;;;12.40;99.90;;;;;;5094010;28;19911;-41
2022/11/16 11:25:40;;;;;;;;;;;12.50;99.90;;;;;;5093937;28;19943;-44
2022/11/16 11:28:06;;;;;;;;;;;12.50;99.90;;;;;;5093887;28;20309;-44
2022/11/16 11:30:32;;;;;;;;;;;12.60;99.90;;;;;;5095064;28;19958;-43
2022/11/16 11:32:58;;;;;;;;;;;12.60;99.90;;;;;;5094832;28;20439;-40
2022/11/16 11:35:31;;;;;;;;;;;12.60;99.90;;;;;;5095105;28;19991;-41
2022/11/16 11:37:59;;;;;;;;;;;12.60;99.90;;;;;;5095631;28;19911;-41
2022/11/16 11:40:28;;;;;;;;;;;12.70;99.90;;;;;;5094873;28;19917;-42
2022/11/16 11:42:57;;;;;;;;;;;12.60;99.90;;;;;;5094956;28;20406;-43
2022/11/16 11:45:26;;;;;;;;;;;12.60;99.90;;;;;;5095161;28;19908;-42
2022/11/16 11:47:52;;;;;;;;;;;12.70;99.90;;;;;;5094751;28;19954;-40
2022/11/16 11:50:24;;;;;;;;;;;12.80;99.90;;;;;;5094934;28;20355;-37
2022/11/16 11:52:52;;;;;;;;;;;12.80;99.90;;;;;;5094640;28;19960;-38
2022/11/16 11:55:18;;;;;;;;;;;12.70;99.90;;;;;;5095072;28;19908;-39
2022/11/16 11:57:45;;;;;;;;;;;12.70;99.90;;;;;;5094623;28;19915;-40
2022/11/16 12:00:12;;;;;;;;;;;12.60;99.90;;;;;;5094572;28;20296;-36
2022/11/16 12:02:41;;;;;;;;;;;12.60;99.90;;;;;;5094485;28;19908;-36
2022/11/16 12:05:25;;;;;;;;;;;12.50;99.90;;;;;;5094469;28;20390;-40
2022/11/16 12:07:54;;;;;;;;;;;12.50;99.90;;;;;;5094311;28;19907;-41
2022/11/16 12:10:32;;;;;;;;;;;12.40;99.90;;;;;;5094127;28;20398;-40
2022/11/16 12:13:13;;;;;;;;;;;12.60;99.90;;;;;;5094617;28;20356;-37
2022/11/16 12:15:57;;;;;;;;;;;12.80;99.90;;;;;;5093270;28;19908;-41
2022/11/16 12:18:42;;;;;;;;;;;12.80;99.90;;;;;;5094112;28;19955;-39
2022/11/16 12:21:12;;;;;;;;;;;12.70;99.90;;;;;;5094147;28;19954;-39
2022/11/16 12:23:56;;;;;;;;;;;12.60;99.90;;;;;;5097378;28;19954;-39
2022/11/16 12:26:25;;;;;;;;;;;12.70;99.90;;;;;;5097162;28;19947;-44
2022/11/16 12:28:58;;;;;;;;;;;12.80;99.90;;;;;;5100027;28;19962;-41
2022/11/16 12:31:38;;;;;;;;;;;12.90;99.90;;;;;;5093895;28;19957;-43
2022/11/16 12:34:23;;;;;;;;;;;12.90;99.90;;;;;;5097411;28;20422;-41
2022/11/16 12:36:59;;;;;;;;;;;12.90;99.90;;;;;;5103256;28;19908;-39
2022/11/16 12:39:25;;;;;;;;;;;13.00;99.90;;;;;;5112987;28;19914;-37
2022/11/16 12:41:53;;;;;;;;;;;13.10;99.90;;;;;;5108644;28;19999;-40
2022/11/16 12:44:30;;;;;;;;;;;13.10;99.90;;;;;;5096439;28;19947;-40
2022/11/16 12:47:05;;;;;;;;;;;13.10;99.90;;;;;;5109947;28;20507;-38
2022/11/16 12:49:40;;;;;;;;;;;13.20;99.90;;;;;;5109353;28;20368;-41
2022/11/16 12:52:08;;;;;;;;;;;13.10;99.90;;;;;;5093737;28;19908;-38
2022/11/16 12:54:40;;;;;;;;;;;13.10;99.90;;;;;;5093621;28;19954;-38
2022/11/16 12:57:28;;;;;;;;;;;13.10;99.90;;;;;;5093913;28;20409;-37
2022/11/16 13:00:05;;;;;;;;;;;13.10;99.90;;;;;;5093927;28;19953;-40
2022/11/16 13:02:30;;;;;;;;;;;13.00;99.90;;;;;;5104104;28;19908;-42
2022/11/16 13:05:14;;;;;;;;;;;12.70;99.90;;;;;;5113916;28;20418;-42
2022/11/16 13:07:42;;;;;;;;;;;12.50;99.90;;;;;;5114101;28;20294;-45
2022/11/16 13:10:13;;;;;;;;;;;12.60;99.90;;;;;;5113898;28;20359;-45
2022/11/16 13:12:39;;;;;;;;;;;12.70;99.90;;;;;;5113819;28;20420;-43
2022/11/16 13:15:11;;;;;;;;;;;12.90;99.90;;;;;;5113821;28;19908;-45
2022/11/16 13:17:37;;;;;;;;;;;13.00;99.90;;;;;;5114017;28;20282;-45
2022/11/16 13:20:16;;;;;;;;;;;13.00;99.90;;;;;;5112779;28;19907;-42
2022/11/16 13:22:45;;;;;;;;;;;12.90;99.90;;;;;;5113756;28;19943;-42
2022/11/16 13:25:17;;;;;;;;;;;12.80;99.90;;;;;;5113699;28;19915;-44
2022/11/16 13:27:47;;;;;;;;;;;12.70;99.90;;;;;;5113639;28;19959;-47
2022/11/16 13:30:20;;;;;;;;;;;12.70;99.90;;;;;;5113439;28;19918;-43
2022/11/16 13:33:04;;;;;;;;;;;12.70;99.90;;;;;;5117252;28;20315;-42
2022/11/16 13:35:29;;;;;;;;;;;12.80;99.90;;;;;;5117924;28;20355;-40
2022/11/16 13:37:55;;;;;;;;;;;12.70;99.90;;;;;;5114640;28;20101;-40
2022/11/16 13:40:20;;;;;;;;;;;12.70;99.90;;;;;;5097134;28;20352;-42
2022/11/16 13:43:04;;;;;;;;;;;12.80;99.90;;;;;;5097230;28;19908;-36
2022/11/16 13:45:32;;;;;;;;;;;12.80;99.90;;;;;;5097269;28;19915;-39
2022/11/16 13:48:00;;;;;;;;;;;12.90;99.90;;;;;;5097091;28;19915;-36
2022/11/16 13:50:28;;;;;;;;;;;12.80;99.90;;;;;;5096884;28;19951;-43
2022/11/16 13:52:59;;;;;;;;;;;12.90;99.90;;;;;;5110607;28;19919;-37
2022/11/16 13:55:27;;;;;;;;;;;12.90;99.90;;;;;;5097173;28;19908;-42
2022/11/16 13:57:54;;;;;;;;;;;13.10;99.90;;;;;;5114871;28;20379;-34
2022/11/16 14:00:23;;;;;;;;;;;13.30;99.90;;;;;;5100401;28;19996;-40
2022/11/16 14:03:09;;;;;;;;;;;13.40;99.90;;;;;;5100363;28;19908;-38
2022/11/16 14:05:38;;;;;;;;;;;13.50;99.90;;;;;;5114070;28;19996;-36
2022/11/16 14:08:19;;;;;;;;;;;13.50;99.90;;;;;;5112674;28;20376;-40
2022/11/16 14:10:48;;;;;;;;;;;13.30;99.90;;;;;;5097027;28;19912;-41
2022/11/16 14:13:34;;;;;;;;;;;13.10;99.90;;;;;;5096943;28;19908;-37
2022/11/16 14:16:31;;;;;;;;;;;13.00;99.90;;;;;;5096518;28;19908;-37
2022/11/16 14:19:00;;;;;;;;;;;12.90;99.90;;;;;;5104154;28;20448;-38
2022/11/16 14:21:28;;;;;;;;;;;12.90;99.90;;;;;;5102530;28;19961;-36
2022/11/16 14:24:06;;;;;;;;;;;13.00;99.90;;;;;;5096449;28;20494;-39
2022/11/16 14:26:31;;;;;;;;;;;13.00;99.90;;;;;;5096608;28;20341;-39
2022/11/16 14:29:00;;;;;;;;;;;12.90;99.90;;;;;;5112470;28;20006;-40
2022/11/16 14:31:29;;;;;;;;;;;12.90;99.90;;;;;;5116681;28;19964;-35
2022/11/16 14:33:56;;;;;;;;;;;12.90;99.90;;;;;;5116407;28;20036;-38
2022/11/16 14:36:38;;;;;;;;;;;12.90;99.90;;;;;;5116890;28;20347;-39
2022/11/16 14:39:23;;;;;;;;;;;12.90;99.90;;;;;;5116842;28;19954;-39
2022/11/16 14:41:49;;;;;;;;;;;12.90;99.90;;;;;;5116089;28;19907;-39
2022/11/16 14:44:18;;;;;;;;;;;12.90;99.90;;;;;;5114249;28;20003;-37
2022/11/16 14:46:44;;;;;;;;;;;12.80;99.90;;;;;;5116411;28;20381;-39
2022/11/16 14:49:12;;;;;;;;;;;12.70;99.90;;;;;;5116449;28;19911;-41
2022/11/16 14:51:41;;;;;;;;;;;12.60;99.90;;;;;;5116283;28;19915;-39
2022/11/16 14:54:19;;;;;;;;;;;12.60;99.90;;;;;;5116234;28;19908;-37
2022/11/16 14:56:53;;;;;;;;;;;12.50;99.90;;;;;;5112002;28;19908;-34
2022/11/16 14:59:19;;;;;;;;;;;12.50;99.90;;;;;;5095800;28;19908;-38
2022/11/16 15:01:44;;;;;;;;;;;12.50;99.90;;;;;;5108812;28;20375;-37